This is the latest recevied weather packets stored in our database for station/object F4FEB-13. If no packets are shown the sender has not sent any weather packets the latest 10 day(s).
| Time | Temp. | Humidity | Pressure | Rain* | Wind** | Luminosity | Snow |
|---|---|---|---|---|---|---|---|
| 1777621772 | 11.11° C | 50% | 1023.5 hPa | 0 mm | - | - | - |
| 1777621474 | 11.11° C | 50% | 1023.5 hPa | 0 mm | - | - | - |
| 1777621472 | 11.11° C | 50% | 1023.5 hPa | 0 mm | - | - | - |
| 1777621172 | 11.11° C | 53% | 1023.5 hPa | 0 mm | - | - | - |
| 1777620872 | 11.11° C | 52% | 1023.4 hPa | 0 mm | - | - | - |
| 1777620572 | 11.11° C | 49% | 1023.4 hPa | 0 mm | - | - | - |
| 1777620272 | 11.11° C | 53% | 1023.5 hPa | 0 mm | - | - | - |
| 1777619972 | 10.56° C | 53% | 1023.4 hPa | 0 mm | - | - | - |
| 1777619672 | 10.56° C | 53% | 1023.4 hPa | 0 mm | - | - | - |
| 1777619372 | 10.56° C | 52% | 1023.3 hPa | 0 mm | - | - | - |
| 1777619072 | 10° C | 54% | 1023.3 hPa | 0 mm | - | - | - |
| 1777618772 | 10° C | 54% | 1023.3 hPa | 0 mm | - | - | - |
| 1777618472 | 10° C | 53% | 1023.3 hPa | 0 mm | - | - | - |
| 1777618172 | 10° C | 51% | 1023.3 hPa | 0 mm | - | - | - |
| 1777617872 | 10.56° C | 48% | 1023.3 hPa | 0 mm | - | - | - |
| 1777617572 | 10° C | 50% | 1023.3 hPa | 0 mm | - | - | - |
| 1777617272 | 8.89° C | 53% | 1023.2 hPa | 0 mm | - | - | - |
| 1777616972 | 8.33° C | 54% | 1023.2 hPa | 0 mm | - | - | - |
| 1777616672 | 8.33° C | 52% | 1023.1 hPa | 0 mm | - | - | - |
| 1777616372 | 8.33° C | 52% | 1023.1 hPa | 0 mm | - | - | - |
| 1777616072 | 7.78° C | 53% | 1023.1 hPa | 0 mm | - | - | - |
| 1777615772 | 7.78° C | 54% | 1023.1 hPa | 0 mm | - | - | - |
| 1777615472 | 7.78° C | 53% | 1023.1 hPa | 0 mm | - | - | - |
| 1777615175 | 7.78° C | 52% | 1023 hPa | 0 mm | - | - | - |
| 1777615172 | 7.78° C | 52% | 1023 hPa | 0 mm | - | - | - |
* Rain latest hour (hover to see other rain measurements)
** Current wind speed in m/s (hover to see current wind gust speed)